createdAt,value
2022-08-17T00:00:39.729Z,71.37
2022-08-17T00:03:11.307Z,71.35
2022-08-17T00:05:45.597Z,71.41
2022-08-17T00:08:17.439Z,71.62
2022-08-17T00:10:47.001Z,71.66
2022-08-17T00:13:19.866Z,71.37
2022-08-17T00:15:48.632Z,71.65
2022-08-17T00:19:01.382Z,71.40
2022-08-17T00:21:10.235Z,71.35
2022-08-17T00:23:47.729Z,71.36
2022-08-17T00:26:34.891Z,71.34
2022-08-17T00:29:08.851Z,71.83
2022-08-17T00:31:37.888Z,71.89
2022-08-17T00:34:18.544Z,71.66
2022-08-17T00:36:47.609Z,72.15
2022-08-17T00:39:16.156Z,71.54
2022-08-17T00:42:34.539Z,72.00
2022-08-17T00:49:26.136Z,72.24
2022-08-17T00:52:06.082Z,72.05
2022-08-17T01:02:22.571Z,72.22
2022-08-17T02:10:18.262Z,72.98
2022-08-17T02:12:50.751Z,73.46
2022-08-17T02:19:25.690Z,73.35
2022-08-17T02:34:21.265Z,73.42
2022-08-17T02:37:17.285Z,73.22
2022-08-17T02:43:51.424Z,73.35
2022-08-17T02:46:20.414Z,73.22
2022-08-17T02:49:09.479Z,73.94
2022-08-17T02:51:40.807Z,73.64
2022-08-17T02:54:40.030Z,73.62
2022-08-17T03:04:21.205Z,73.80
2022-08-17T03:06:49.880Z,73.99
2022-08-17T03:09:36.912Z,74.05
2022-08-17T03:16:00.794Z,73.87
2022-08-17T03:29:22.086Z,74.24
2022-08-17T03:32:01.509Z,74.17
2022-08-17T03:36:08.115Z,74.39
2022-08-17T03:38:24.912Z,74.49
2022-08-17T03:40:56.970Z,74.46
2022-08-17T03:51:48.789Z,74.61
2022-08-17T03:52:16.828Z,74.49
2022-08-17T03:55:04.676Z,74.69
2022-08-17T03:57:33.370Z,74.50
2022-08-17T04:00:04.888Z,74.51
2022-08-17T04:02:42.376Z,74.79
2022-08-17T04:05:12.479Z,74.78
2022-08-17T04:11:44.589Z,74.82
2022-08-17T04:14:17.407Z,75.31
2022-08-17T04:16:46.174Z,75.30
2022-08-17T04:23:43.536Z,75.16
2022-08-17T04:26:52.676Z,75.13
2022-08-17T04:33:43.962Z,75.32
2022-08-17T04:36:15.292Z,75.54
2022-08-17T04:38:45.545Z,75.64
2022-08-17T04:45:18.007Z,75.79
2022-08-17T04:47:54.071Z,75.50
2022-08-17T04:50:22.665Z,75.72
2022-08-17T05:00:54.256Z,75.32
2022-08-17T05:10:48.571Z,74.96
2022-08-17T05:13:19.212Z,75.25
2022-08-17T05:19:47.580Z,74.73
2022-08-17T05:22:26.988Z,75.00
2022-08-17T05:25:10.396Z,74.54
2022-08-17T05:34:28.683Z,70.99
2022-08-17T05:36:57.306Z,69.85
2022-08-17T05:43:32.684Z,69.88
2022-08-17T05:46:33.172Z,68.83
2022-08-17T05:55:59.208Z,68.25
2022-08-17T05:58:58.780Z,68.50
2022-08-17T06:09:08.905Z,69.01
2022-08-17T06:11:45.469Z,68.39
2022-08-17T06:14:45.348Z,68.88
2022-08-17T06:18:05.488Z,68.79
2022-08-17T06:20:49.025Z,69.55
2022-08-17T06:23:40.641Z,69.46
2022-08-17T06:26:14.607Z,68.95
2022-08-17T06:28:51.185Z,69.06
2022-08-17T06:31:26.979Z,69.01
2022-08-17T06:33:57.974Z,69.34
2022-08-17T06:36:41.869Z,69.05
2022-08-17T06:39:31.777Z,69.06
2022-08-17T06:43:02.548Z,68.94
2022-08-17T06:45:10.678Z,69.00
2022-08-17T06:47:44.918Z,68.76
2022-08-17T06:50:20.052Z,68.71
2022-08-17T06:52:54.478Z,68.93
2022-08-17T06:55:32.190Z,68.60
2022-08-17T06:58:09.985Z,68.70
2022-08-17T07:00:47.924Z,68.71
2022-08-17T07:03:26.285Z,68.32
2022-08-17T07:05:59.189Z,68.54
2022-08-17T10:31:10.516Z,52.20
2022-08-17T10:34:08.845Z,51.77
2022-08-17T10:36:54.553Z,51.44
2022-08-17T10:43:34.180Z,50.82
2022-08-17T10:46:30.297Z,50.80
2022-08-17T10:49:28.047Z,49.70
2022-08-17T10:53:06.355Z,48.82
2022-08-17T10:56:28.746Z,48.69
2022-08-17T10:59:00.136Z,48.63
2022-08-17T11:02:14.862Z,48.46
2022-08-17T11:05:33.969Z,48.74
2022-08-17T11:08:31.704Z,49.10
2022-08-17T11:11:22.756Z,48.63
2022-08-17T11:14:08.619Z,48.51
2022-08-17T11:16:52.957Z,48.91
2022-08-17T11:20:05.484Z,48.12
2022-08-17T11:23:35.944Z,47.64
2022-08-17T11:26:35.348Z,47.78
2022-08-17T11:29:17.025Z,47.44
2022-08-17T11:32:27.581Z,47.06
2022-08-17T11:35:54.988Z,47.09
2022-08-17T11:38:45.875Z,46.54
2022-08-17T11:41:26.962Z,46.87
2022-08-17T11:48:33.823Z,46.40
2022-08-17T11:51:30.914Z,46.67
2022-08-17T11:54:34.408Z,45.67
2022-08-17T11:57:50.253Z,46.05
2022-08-17T12:01:10.090Z,45.99
2022-08-17T12:03:58.458Z,45.00
2022-08-17T12:10:12.095Z,44.05
2022-08-17T12:12:43.620Z,43.91
2022-08-17T12:15:19.392Z,44.03
2022-08-17T12:22:06.381Z,44.53
2022-08-17T12:22:13.626Z,44.17
2022-08-17T12:25:03.889Z,44.47
2022-08-17T12:28:04.765Z,44.20
2022-08-17T12:30:57.427Z,44.74
2022-08-17T12:33:28.637Z,44.69
2022-08-17T12:36:11.537Z,44.78
2022-08-17T12:38:41.646Z,44.72
2022-08-17T12:41:26.708Z,44.69
2022-08-17T12:44:01.728Z,44.52
2022-08-17T12:46:34.362Z,44.52
2022-08-17T12:49:16.664Z,44.99
2022-08-17T12:51:47.291Z,44.16
2022-08-17T12:54:31.542Z,44.13
2022-08-17T12:57:05.472Z,44.33
2022-08-17T12:59:34.343Z,44.42
2022-08-17T13:02:03.410Z,44.76
2022-08-17T13:04:32.132Z,44.29
2022-08-17T13:07:01.093Z,44.26
2022-08-17T13:09:40.259Z,43.88
2022-08-17T13:12:10.375Z,43.84
2022-08-17T13:14:45.968Z,43.76
2022-08-17T13:17:26.827Z,43.24
2022-08-17T13:19:55.626Z,42.57
2022-08-17T13:22:26.288Z,42.76
2022-08-17T13:24:57.875Z,42.97
2022-08-17T13:27:28.696Z,42.73
2022-08-17T13:30:00.383Z,42.72
2022-08-17T13:32:46.740Z,42.81
2022-08-17T13:35:50.071Z,42.77
2022-08-17T13:38:40.020Z,42.85
2022-08-17T13:41:28.707Z,42.76
2022-08-17T13:43:57.777Z,43.11
2022-08-17T13:46:30.937Z,43.27
2022-08-17T13:49:03.387Z,43.50
2022-08-17T13:51:35.560Z,43.83
2022-08-17T13:54:10.774Z,44.10
2022-08-17T13:57:00.773Z,44.48
2022-08-17T13:59:54.142Z,44.66
2022-08-17T14:02:28.456Z,45.04
2022-08-17T14:04:58.745Z,45.47
2022-08-17T14:07:33.095Z,45.70
2022-08-17T14:10:06.722Z,45.64
2022-08-17T14:12:38.079Z,45.78
2022-08-17T14:15:09.167Z,45.77
2022-08-17T14:17:39.185Z,45.47
2022-08-17T14:20:12.105Z,45.58
2022-08-17T14:22:48.913Z,45.64
2022-08-17T14:25:20.627Z,45.89
2022-08-17T14:27:52.996Z,45.85
2022-08-17T14:30:25.906Z,45.92
2022-08-17T14:32:56.028Z,46.29
2022-08-17T14:35:27.466Z,46.18
2022-08-17T14:37:56.782Z,46.15
2022-08-17T14:40:26.540Z,46.45
2022-08-17T14:42:57.274Z,46.33
2022-08-17T14:45:32.102Z,46.34
2022-08-17T14:48:05.200Z,46.18
2022-08-17T14:50:35.290Z,46.33
2022-08-17T14:53:06.069Z,46.19
2022-08-17T14:55:39.093Z,46.28
2022-08-17T14:58:08.672Z,46.21
2022-08-17T15:00:38.938Z,46.27
2022-08-17T15:03:07.514Z,46.35
2022-08-17T15:05:38.219Z,46.33
2022-08-17T15:08:07.818Z,46.55
2022-08-17T15:10:38.597Z,46.57
2022-08-17T15:13:16.557Z,46.71
2022-08-17T15:19:29.214Z,46.85
2022-08-17T15:22:15.884Z,46.98
2022-08-17T15:24:47.431Z,47.34
2022-08-17T15:31:08.486Z,47.44
2022-08-17T15:33:37.160Z,47.62
2022-08-17T15:44:20.667Z,47.95
2022-08-17T15:46:49.562Z,47.84
2022-08-17T15:49:27.935Z,48.45
2022-08-17T15:51:57.790Z,48.29
2022-08-17T15:54:31.626Z,48.52
2022-08-17T15:57:06.999Z,48.64
2022-08-17T15:59:42.428Z,48.84
2022-08-17T16:03:45.451Z,49.14
2022-08-17T16:05:21.612Z,49.62
2022-08-17T16:07:59.879Z,49.69
2022-08-17T16:10:35.136Z,49.83
2022-08-17T16:13:17.648Z,50.55
2022-08-17T16:15:56.578Z,50.94
2022-08-17T16:18:31.241Z,51.27
2022-08-17T16:21:26.141Z,51.45
2022-08-17T16:24:38.704Z,52.02
2022-08-17T16:27:20.762Z,52.25
2022-08-17T16:29:55.532Z,52.30
2022-08-17T16:33:02.850Z,52.33
2022-08-17T16:35:50.684Z,52.66
2022-08-17T16:38:31.787Z,52.88
2022-08-17T16:41:00.586Z,52.95
2022-08-17T16:43:35.456Z,53.24
2022-08-17T16:46:15.405Z,53.07
2022-08-17T16:48:56.606Z,53.59
2022-08-17T16:51:25.705Z,53.94
2022-08-17T16:54:00.504Z,53.83
2022-08-17T16:56:41.316Z,53.97
2022-08-17T16:59:39.435Z,54.01
2022-08-17T17:02:37.094Z,54.02
2022-08-17T17:05:12.456Z,54.07
2022-08-17T17:08:00.371Z,54.21
2022-08-17T17:10:35.742Z,54.33
2022-08-17T17:13:12.289Z,54.42
2022-08-17T17:15:53.186Z,54.31
2022-08-17T17:18:27.004Z,54.55
2022-08-17T17:20:57.478Z,54.11
2022-08-17T17:23:53.967Z,54.32
2022-08-17T17:26:39.819Z,54.14
2022-08-17T17:29:48.228Z,54.74
2022-08-17T17:32:27.797Z,54.40
2022-08-17T17:35:04.279Z,54.84
2022-08-17T17:37:35.973Z,54.49
2022-08-17T17:40:12.908Z,54.59
2022-08-17T17:42:46.936Z,54.68
2022-08-17T17:45:21.330Z,54.94
2022-08-17T17:47:50.816Z,54.92
2022-08-17T17:50:35.591Z,55.04
2022-08-17T17:53:43.039Z,55.15
2022-08-17T17:56:44.658Z,55.36
2022-08-17T17:59:46.944Z,55.34
2022-08-17T18:06:38.619Z,55.89
2022-08-17T18:09:23.772Z,55.82
2022-08-17T18:12:38.138Z,56.18
2022-08-17T18:19:20.296Z,56.81
2022-08-17T18:22:47.347Z,56.76
2022-08-17T18:29:24.505Z,57.35
2022-08-17T18:50:53.731Z,57.97
2022-08-17T18:53:34.729Z,58.11
2022-08-17T19:01:08.580Z,58.82
